sensor_id;sensor_type;location;lat;lon;timestamp;pressure;altitude;pressure_sealevel;temperature;humidity
35151;BME280;55720;51.972;4.624;2023-03-01T00:01:59;103063.00;;;-2.67;100.00
35151;BME280;55720;51.972;4.624;2023-03-01T00:04:24;103075.81;;;-2.69;100.00
35151;BME280;55720;51.972;4.624;2023-03-01T00:06:50;103074.00;;;-2.83;100.00
35151;BME280;55720;51.972;4.624;2023-03-01T00:09:16;103069.13;;;-2.94;100.00
35151;BME280;55720;51.972;4.624;2023-03-01T00:11:42;103068.38;;;-3.03;100.00
35151;BME280;55720;51.972;4.624;2023-03-01T00:14:08;103088.50;;;-3.13;100.00
35151;BME280;55720;51.972;4.624;2023-03-01T00:16:39;103087.19;;;-3.17;100.00
35151;BME280;55720;51.972;4.624;2023-03-01T00:19:05;103099.53;;;-3.23;100.00
35151;BME280;55720;51.972;4.624;2023-03-01T00:21:31;103101.94;;;-3.28;100.00
35151;BME280;55720;51.972;4.624;2023-03-01T00:23:57;103118.34;;;-3.37;100.00
35151;BME280;55720;51.972;4.624;2023-03-01T00:26:24;103120.56;;;-3.41;100.00
35151;BME280;55720;51.972;4.624;2023-03-01T00:28:50;103115.66;;;-3.37;100.00
35151;BME280;55720;51.972;4.624;2023-03-01T00:31:18;103094.72;;;-3.42;100.00
35151;BME280;55720;51.972;4.624;2023-03-01T00:33:45;103099.78;;;-3.47;100.00
35151;BME280;55720;51.972;4.624;2023-03-01T00:36:13;103115.75;;;-3.45;100.00
35151;BME280;55720;51.972;4.624;2023-03-01T00:38:41;103124.16;;;-3.49;100.00
35151;BME280;55720;51.972;4.624;2023-03-01T00:41:09;103123.34;;;-3.49;100.00
35151;BME280;55720;51.972;4.624;2023-03-01T00:43:36;103106.22;;;-3.48;100.00
35151;BME280;55720;51.972;4.624;2023-03-01T00:46:10;103086.28;;;-3.54;100.00
35151;BME280;55720;51.972;4.624;2023-03-01T00:48:35;103127.41;;;-3.53;100.00
35151;BME280;55720;51.972;4.624;2023-03-01T00:51:09;103137.66;;;-3.57;100.00
35151;BME280;55720;51.972;4.624;2023-03-01T00:53:35;103168.88;;;-3.56;100.00
35151;BME280;55720;51.972;4.624;2023-03-01T00:56:02;103178.78;;;-3.56;100.00
35151;BME280;55720;51.972;4.624;2023-03-01T00:58:27;103177.31;;;-3.59;100.00
35151;BME280;55720;51.972;4.624;2023-03-01T01:00:53;103184.16;;;-3.56;100.00
35151;BME280;55720;51.972;4.624;2023-03-01T01:03:19;103193.22;;;-3.57;100.00
35151;BME280;55720;51.972;4.624;2023-03-01T01:05:45;103187.91;;;-3.65;100.00
35151;BME280;55720;51.972;4.624;2023-03-01T01:08:11;103192.47;;;-3.66;100.00
35151;BME280;55720;51.972;4.624;2023-03-01T01:10:36;103173.84;;;-3.67;100.00
35151;BME280;55720;51.972;4.624;2023-03-01T01:13:02;103175.91;;;-3.69;100.00
35151;BME280;55720;51.972;4.624;2023-03-01T01:15:27;103179.59;;;-3.70;100.00
35151;BME280;55720;51.972;4.624;2023-03-01T01:17:53;103184.41;;;-3.66;100.00
35151;BME280;55720;51.972;4.624;2023-03-01T01:20:18;103194.31;;;-3.66;100.00
35151;BME280;55720;51.972;4.624;2023-03-01T01:22:44;103194.50;;;-3.68;100.00
35151;BME280;55720;51.972;4.624;2023-03-01T01:25:09;103203.53;;;-3.69;100.00
35151;BME280;55720;51.972;4.624;2023-03-01T01:27:35;103196.06;;;-3.73;100.00
35151;BME280;55720;51.972;4.624;2023-03-01T01:30:01;103193.06;;;-3.78;100.00
35151;BME280;55720;51.972;4.624;2023-03-01T01:32:26;103130.69;;;-3.80;100.00
35151;BME280;55720;51.972;4.624;2023-03-01T01:34:52;103177.34;;;-3.81;100.00
35151;BME280;55720;51.972;4.624;2023-03-01T01:37:17;103188.59;;;-3.86;100.00
35151;BME280;55720;51.972;4.624;2023-03-01T01:39:42;103204.53;;;-3.84;100.00
35151;BME280;55720;51.972;4.624;2023-03-01T01:42:17;103205.91;;;-3.88;100.00
35151;BME280;55720;51.972;4.624;2023-03-01T01:44:46;103205.66;;;-3.79;100.00
35151;BME280;55720;51.972;4.624;2023-03-01T01:52:22;103212.28;;;-3.29;100.00
35151;BME280;55720;51.972;4.624;2023-03-01T01:55:08;103210.16;;;-3.19;100.00
35151;BME280;55720;51.972;4.624;2023-03-01T01:57:47;103242.31;;;-3.26;100.00
35151;BME280;55720;51.972;4.624;2023-03-01T02:00:17;103263.50;;;-3.31;100.00
35151;BME280;55720;51.972;4.624;2023-03-01T02:02:44;103271.44;;;-3.37;100.00
35151;BME280;55720;51.972;4.624;2023-03-01T02:07:43;103319.41;;;-3.57;100.00
35151;BME280;55720;51.972;4.624;2023-03-01T02:10:09;103329.75;;;-3.46;100.00
35151;BME280;55720;51.972;4.624;2023-03-01T02:12:35;103346.44;;;-3.36;100.00
35151;BME280;55720;51.972;4.624;2023-03-01T02:15:02;103338.66;;;-3.45;100.00
35151;BME280;55720;51.972;4.624;2023-03-01T02:17:27;103360.59;;;-3.42;100.00
35151;BME280;55720;51.972;4.624;2023-03-01T02:20:17;103370.63;;;-3.36;100.00
35151;BME280;55720;51.972;4.624;2023-03-01T02:23:00;103379.00;;;-3.31;100.00
35151;BME280;55720;51.972;4.624;2023-03-01T02:25:55;103383.94;;;-3.42;100.00
35151;BME280;55720;51.972;4.624;2023-03-01T02:30:53;103396.13;;;-3.55;100.00
35151;BME280;55720;51.972;4.624;2023-03-01T02:33:38;103408.22;;;-3.59;100.00
35151;BME280;55720;51.972;4.624;2023-03-01T02:36:08;103418.13;;;-3.59;100.00
35151;BME280;55720;51.972;4.624;2023-03-01T02:38:34;103427.03;;;-3.59;100.00
35151;BME280;55720;51.972;4.624;2023-03-01T02:41:00;103431.22;;;-3.64;100.00
35151;BME280;55720;51.972;4.624;2023-03-01T02:43:30;103439.31;;;-3.72;100.00
35151;BME280;55720;51.972;4.624;2023-03-01T02:46:03;103443.53;;;-3.78;100.00
35151;BME280;55720;51.972;4.624;2023-03-01T02:48:50;103434.84;;;-3.80;100.00
35151;BME280;55720;51.972;4.624;2023-03-01T02:51:39;103438.56;;;-3.89;100.00
35151;BME280;55720;51.972;4.624;2023-03-01T02:54:15;103430.84;;;-3.92;100.00
35151;BME280;55720;51.972;4.624;2023-03-01T02:56:43;103432.03;;;-3.94;100.00
35151;BME280;55720;51.972;4.624;2023-03-01T02:59:09;103416.81;;;-4.02;100.00
35151;BME280;55720;51.972;4.624;2023-03-01T03:01:35;103429.53;;;-4.04;100.00
35151;BME280;55720;51.972;4.624;2023-03-01T03:04:08;103426.84;;;-4.04;100.00
35151;BME280;55720;51.972;4.624;2023-03-01T03:06:35;103434.25;;;-4.06;100.00
35151;BME280;55720;51.972;4.624;2023-03-01T03:09:01;103415.47;;;-4.06;100.00
35151;BME280;55720;51.972;4.624;2023-03-01T03:11:27;103403.75;;;-4.13;100.00
35151;BME280;55720;51.972;4.624;2023-03-01T03:13:52;103396.56;;;-4.21;100.00
35151;BME280;55720;51.972;4.624;2023-03-01T03:16:19;103396.94;;;-4.24;100.00
35151;BME280;55720;51.972;4.624;2023-03-01T03:18:45;103388.38;;;-4.27;100.00
35151;BME280;55720;51.972;4.624;2023-03-01T03:21:11;103378.31;;;-4.25;100.00
35151;BME280;55720;51.972;4.624;2023-03-01T03:23:37;103380.28;;;-4.19;100.00
35151;BME280;55720;51.972;4.624;2023-03-01T03:26:04;103388.19;;;-4.18;100.00
35151;BME280;55720;51.972;4.624;2023-03-01T03:28:31;103378.66;;;-4.28;100.00
35151;BME280;55720;51.972;4.624;2023-03-01T03:30:56;103365.94;;;-4.34;100.00
35151;BME280;55720;51.972;4.624;2023-03-01T03:33:23;103364.06;;;-4.34;100.00
35151;BME280;55720;51.972;4.624;2023-03-01T03:35:49;103371.13;;;-4.33;100.00
35151;BME280;55720;51.972;4.624;2023-03-01T03:38:18;103358.03;;;-4.28;100.00
35151;BME280;55720;51.972;4.624;2023-03-01T03:40:49;103345.97;;;-4.24;100.00
35151;BME280;55720;51.972;4.624;2023-03-01T03:43:20;103342.94;;;-4.21;100.00
35151;BME280;55720;51.972;4.624;2023-03-01T03:45:46;103342.94;;;-4.21;100.00
35151;BME280;55720;51.972;4.624;2023-03-01T03:48:12;103331.22;;;-4.28;100.00
35151;BME280;55720;51.972;4.624;2023-03-01T03:50:39;103330.53;;;-4.30;100.00
35151;BME280;55720;51.972;4.624;2023-03-01T03:53:08;103326.53;;;-4.34;100.00
35151;BME280;55720;51.972;4.624;2023-03-01T03:55:34;103326.22;;;-4.39;100.00
35151;BME280;55720;51.972;4.624;2023-03-01T03:58:01;103308.47;;;-4.40;100.00
35151;BME280;55720;51.972;4.624;2023-03-01T04:00:35;103310.31;;;-4.40;100.00
35151;BME280;55720;51.972;4.624;2023-03-01T04:03:01;103290.03;;;-4.43;100.00
35151;BME280;55720;51.972;4.624;2023-03-01T04:05:29;103302.31;;;-4.49;100.00
35151;BME280;55720;51.972;4.624;2023-03-01T04:07:55;103310.16;;;-4.47;100.00
35151;BME280;55720;51.972;4.624;2023-03-01T04:10:31;103299.28;;;-4.45;100.00
35151;BME280;55720;51.972;4.624;2023-03-01T04:12:57;103303.59;;;-4.44;100.00
35151;BME280;55720;51.972;4.624;2023-03-01T04:15:23;103300.28;;;-4.47;100.00
35151;BME280;55720;51.972;4.624;2023-03-01T04:17:51;103299.28;;;-4.45;100.00
35151;BME280;55720;51.972;4.624;2023-03-01T04:20:21;103292.84;;;-4.36;100.00
35151;BME280;55720;51.972;4.624;2023-03-01T04:23:00;103285.38;;;-4.10;100.00
35151;BME280;55720;51.972;4.624;2023-03-01T04:25:47;103281.28;;;-3.75;100.00
35151;BME280;55720;51.972;4.624;2023-03-01T04:28:40;103284.41;;;-3.41;100.00
35151;BME280;55720;51.972;4.624;2023-03-01T04:31:13;103274.81;;;-3.21;100.00
35151;BME280;55720;51.972;4.624;2023-03-01T04:33:55;103276.53;;;-3.05;100.00
35151;BME280;55720;51.972;4.624;2023-03-01T04:36:23;103289.59;;;-3.02;100.00
35151;BME280;55720;51.972;4.624;2023-03-01T04:38:49;103291.84;;;-2.91;100.00
35151;BME280;55720;51.972;4.624;2023-03-01T04:41:18;103291.00;;;-2.91;100.00
35151;BME280;55720;51.972;4.624;2023-03-01T04:43:44;103294.13;;;-3.03;100.00
35151;BME280;55720;51.972;4.624;2023-03-01T04:46:12;103300.84;;;-3.21;100.00
35151;BME280;55720;51.972;4.624;2023-03-01T04:48:40;103312.47;;;-3.29;100.00
35151;BME280;55720;51.972;4.624;2023-03-01T04:51:05;103318.63;;;-3.43;100.00
35151;BME280;55720;51.972;4.624;2023-03-01T04:53:31;103308.25;;;-3.46;100.00
35151;BME280;55720;51.972;4.624;2023-03-01T04:55:58;103315.00;;;-3.50;100.00
35151;BME280;55720;51.972;4.624;2023-03-01T04:58:24;103316.31;;;-3.46;100.00
35151;BME280;55720;51.972;4.624;2023-03-01T05:00:51;103315.13;;;-3.43;100.00
35151;BME280;55720;51.972;4.624;2023-03-01T05:03:17;103320.50;;;-3.43;100.00
35151;BME280;55720;51.972;4.624;2023-03-01T05:05:44;103326.78;;;-3.51;100.00
35151;BME280;55720;51.972;4.624;2023-03-01T05:08:10;103316.63;;;-3.64;100.00
35151;BME280;55720;51.972;4.624;2023-03-01T05:10:49;103323.84;;;-3.64;100.00
35151;BME280;55720;51.972;4.624;2023-03-01T05:13:15;103316.63;;;-3.64;100.00
35151;BME280;55720;51.972;4.624;2023-03-01T05:15:56;103324.03;;;-3.66;100.00
35151;BME280;55720;51.972;4.624;2023-03-01T05:18:23;103318.69;;;-3.74;100.00
35151;BME280;55720;51.972;4.624;2023-03-01T05:20:54;103323.94;;;-3.80;100.00
35151;BME280;55720;51.972;4.624;2023-03-01T05:23:22;103325.72;;;-3.95;100.00
35151;BME280;55720;51.972;4.624;2023-03-01T05:25:48;103318.53;;;-4.03;100.00
35151;BME280;55720;51.972;4.624;2023-03-01T05:28:15;103312.34;;;-4.12;100.00
35151;BME280;55720;51.972;4.624;2023-03-01T05:30:40;103310.06;;;-4.23;100.00
35151;BME280;55720;51.972;4.624;2023-03-01T05:33:07;103311.97;;;-4.31;100.00
35151;BME280;55720;51.972;4.624;2023-03-01T05:35:39;103291.50;;;-4.32;100.00
35151;BME280;55720;51.972;4.624;2023-03-01T05:38:05;103289.81;;;-4.33;100.00
35151;BME280;55720;51.972;4.624;2023-03-01T05:40:33;103282.16;;;-4.44;100.00
35151;BME280;55720;51.972;4.624;2023-03-01T05:42:58;103278.50;;;-4.52;100.00
35151;BME280;55720;51.972;4.624;2023-03-01T05:45:25;103269.09;;;-4.48;100.00
35151;BME280;55720;51.972;4.624;2023-03-01T05:47:51;103264.31;;;-4.60;100.00
35151;BME280;55720;51.972;4.624;2023-03-01T05:50:23;103253.97;;;-4.71;100.00
35151;BME280;55720;51.972;4.624;2023-03-01T05:52:56;103249.44;;;-4.71;100.00
35151;BME280;55720;51.972;4.624;2023-03-01T05:55:22;103253.97;;;-4.71;100.00
35151;BME280;55720;51.972;4.624;2023-03-01T05:57:48;103232.69;;;-4.73;100.00
35151;BME280;55720;51.972;4.624;2023-03-01T06:00:16;103221.66;;;-4.78;100.00
35151;BME280;55720;51.972;4.624;2023-03-01T06:02:42;103212.44;;;-4.83;100.00
35151;BME280;55720;51.972;4.624;2023-03-01T06:05:09;103199.75;;;-4.89;100.00
35151;BME280;55720;51.972;4.624;2023-03-01T06:07:35;103184.34;;;-4.96;100.00
35151;BME280;55720;51.972;4.624;2023-03-01T06:10:02;103177.00;;;-5.02;100.00
35151;BME280;55720;51.972;4.624;2023-03-01T06:12:33;103160.47;;;-5.05;100.00
35151;BME280;55720;51.972;4.624;2023-03-01T06:14:59;103142.53;;;-4.97;100.00
35151;BME280;55720;51.972;4.624;2023-03-01T06:17:25;103131.59;;;-4.95;100.00
35151;BME280;55720;51.972;4.624;2023-03-01T06:19:50;103119.72;;;-4.92;100.00
35151;BME280;55720;51.972;4.624;2023-03-01T06:22:15;103112.69;;;-4.93;100.00
35151;BME280;55720;51.972;4.624;2023-03-01T06:24:41;103107.25;;;-5.08;100.00
35151;BME280;55720;51.972;4.624;2023-03-01T06:27:07;103099.06;;;-4.84;100.00
35151;BME280;55720;51.972;4.624;2023-03-01T06:29:32;103095.13;;;-4.65;100.00
35151;BME280;55720;51.972;4.624;2023-03-01T06:31:58;103083.91;;;-4.69;100.00
35151;BME280;55720;51.972;4.624;2023-03-01T06:34:23;103073.78;;;-4.81;100.00
35151;BME280;55720;51.972;4.624;2023-03-01T06:36:48;103069.31;;;-4.89;100.00
35151;BME280;55720;51.972;4.624;2023-03-01T06:39:14;103055.59;;;-4.94;100.00
35151;BME280;55720;51.972;4.624;2023-03-01T06:41:39;103051.91;;;-4.93;100.00
35151;BME280;55720;51.972;4.624;2023-03-01T06:44:05;103043.38;;;-4.88;100.00
35151;BME280;55720;51.972;4.624;2023-03-01T06:46:30;103039.13;;;-4.83;100.00
35151;BME280;55720;51.972;4.624;2023-03-01T06:48:58;103026.19;;;-4.79;100.00
35151;BME280;55720;51.972;4.624;2023-03-01T06:51:24;103020.06;;;-4.88;100.00
35151;BME280;55720;51.972;4.624;2023-03-01T06:53:50;103015.06;;;-4.91;100.00
35151;BME280;55720;51.972;4.624;2023-03-01T06:56:15;103003.94;;;-4.80;100.00
35151;BME280;55720;51.972;4.624;2023-03-01T06:58:41;102998.81;;;-4.67;100.00
35151;BME280;55720;51.972;4.624;2023-03-01T07:01:07;102981.50;;;-4.56;100.00
35151;BME280;55720;51.972;4.624;2023-03-01T07:03:33;102972.53;;;-4.49;100.00
35151;BME280;55720;51.972;4.624;2023-03-01T07:05:58;102962.94;;;-4.43;100.00
35151;BME280;55720;51.972;4.624;2023-03-01T07:08:24;102948.16;;;-4.39;100.00
35151;BME280;55720;51.972;4.624;2023-03-01T07:10:57;102951.56;;;-4.30;100.00
35151;BME280;55720;51.972;4.624;2023-03-01T07:13:23;102952.53;;;-4.23;100.00
35151;BME280;55720;51.972;4.624;2023-03-01T07:15:48;102940.41;;;-4.05;100.00
35151;BME280;55720;51.972;4.624;2023-03-01T07:18:14;102940.06;;;-4.02;100.00
35151;BME280;55720;51.972;4.624;2023-03-01T07:20:39;102943.00;;;-3.97;100.00
35151;BME280;55720;51.972;4.624;2023-03-01T07:23:05;102945.38;;;-3.87;100.00
35151;BME280;55720;51.972;4.624;2023-03-01T07:25:31;102945.84;;;-3.69;100.00
35151;BME280;55720;51.972;4.624;2023-03-01T07:27:57;102956.69;;;-3.62;100.00
35151;BME280;55720;51.972;4.624;2023-03-01T07:30:23;102957.59;;;-3.55;100.00
35151;BME280;55720;51.972;4.624;2023-03-01T07:32:51;102969.25;;;-3.48;100.00
35151;BME280;55720;51.972;4.624;2023-03-01T07:35:16;102979.31;;;-3.35;100.00
35151;BME280;55720;51.972;4.624;2023-03-01T07:37:42;102983.38;;;-3.25;100.00
35151;BME280;55720;51.972;4.624;2023-03-01T07:40:08;102982.13;;;-3.08;100.00
35151;BME280;55720;51.972;4.624;2023-03-01T07:42:34;102987.09;;;-2.90;100.00
35151;BME280;55720;51.972;4.624;2023-03-01T07:44:59;102996.09;;;-2.76;100.00
35151;BME280;55720;51.972;4.624;2023-03-01T07:47:25;103014.22;;;-2.64;100.00
35151;BME280;55720;51.972;4.624;2023-03-01T07:49:50;103020.56;;;-2.29;100.00
35151;BME280;55720;51.972;4.624;2023-03-01T07:52:15;103009.78;;;-0.65;100.00
35151;BME280;55720;51.972;4.624;2023-03-01T07:54:42;102944.94;;;2.92;100.00
35151;BME280;55720;51.972;4.624;2023-03-01T07:57:09;102760.06;;;5.05;100.00
35151;BME280;55720;51.972;4.624;2023-03-01T07:59:35;103037.38;;;5.58;100.00
35151;BME280;55720;51.972;4.624;2023-03-01T08:02:00;103197.44;;;6.03;100.00
35151;BME280;55720;51.972;4.624;2023-03-01T08:04:26;103243.69;;;7.26;100.00
35151;BME280;55720;51.972;4.624;2023-03-01T08:06:52;103161.47;;;7.27;100.00
35151;BME280;55720;51.972;4.624;2023-03-01T08:09:17;103021.34;;;6.83;100.00
35151;BME280;55720;51.972;4.624;2023-03-01T08:11:43;102924.06;;;7.04;100.00
35151;BME280;55720;51.972;4.624;2023-03-01T08:14:08;102845.22;;;8.69;100.00
35151;BME280;55720;51.972;4.624;2023-03-01T08:16:36;102726.34;;;9.89;100.00
35151;BME280;55720;51.972;4.624;2023-03-01T08:19:09;102566.50;;;8.40;100.00
35151;BME280;55720;51.972;4.624;2023-03-01T08:21:35;102422.16;;;5.97;100.00
35151;BME280;55720;51.972;4.624;2023-03-01T08:24:02;102367.19;;;5.73;100.00
35151;BME280;55720;51.972;4.624;2023-03-01T08:26:29;102307.84;;;7.64;100.00
35151;BME280;55720;51.972;4.624;2023-03-01T08:28:54;102271.41;;;9.15;100.00
35151;BME280;55720;51.972;4.624;2023-03-01T08:31:23;102283.53;;;9.91;100.00
35151;BME280;55720;51.972;4.624;2023-03-01T08:33:51;102368.63;;;9.85;100.00
35151;BME280;55720;51.972;4.624;2023-03-01T08:36:21;102447.66;;;10.12;100.00
35151;BME280;55720;51.972;4.624;2023-03-01T08:38:47;102553.66;;;9.69;100.00
35151;BME280;55720;51.972;4.624;2023-03-01T08:41:13;102634.84;;;9.06;100.00
35151;BME280;55720;51.972;4.624;2023-03-01T08:43:39;102708.53;;;7.50;100.00
35151;BME280;55720;51.972;4.624;2023-03-01T08:46:05;102739.84;;;6.53;100.00
35151;BME280;55720;51.972;4.624;2023-03-01T08:48:30;102771.59;;;5.51;100.00
35151;BME280;55720;51.972;4.624;2023-03-01T08:50:56;102785.84;;;4.86;100.00
35151;BME280;55720;51.972;4.624;2023-03-01T08:53:21;102786.28;;;4.33;100.00
35151;BME280;55720;51.972;4.624;2023-03-01T08:55:46;102782.25;;;4.07;100.00
35151;BME280;55720;51.972;4.624;2023-03-01T08:58:12;102793.72;;;3.58;100.00
35151;BME280;55720;51.972;4.624;2023-03-01T09:00:38;102793.38;;;3.54;100.00
35151;BME280;55720;51.972;4.624;2023-03-01T09:03:03;102801.38;;;3.37;100.00
35151;BME280;55720;51.972;4.624;2023-03-01T09:05:32;102784.75;;;3.45;100.00
35151;BME280;55720;51.972;4.624;2023-03-01T09:07:57;102782.38;;;3.61;100.00
35151;BME280;55720;51.972;4.624;2023-03-01T09:10:23;102770.06;;;3.70;100.00
35151;BME280;55720;51.972;4.624;2023-03-01T09:12:48;102767.44;;;3.75;100.00
35151;BME280;55720;51.972;4.624;2023-03-01T09:15:13;102759.38;;;3.80;100.00
35151;BME280;55720;51.972;4.624;2023-03-01T09:17:39;102747.44;;;3.92;100.00
35151;BME280;55720;51.972;4.624;2023-03-01T09:20:05;102756.75;;;3.96;100.00
35151;BME280;55720;51.972;4.624;2023-03-01T09:22:33;102755.09;;;3.95;100.00
35151;BME280;55720;51.972;4.624;2023-03-01T09:24:59;102749.84;;;4.06;100.00
35151;BME280;55720;51.972;4.624;2023-03-01T09:27:24;102762.34;;;3.90;100.00
35151;BME280;55720;51.972;4.624;2023-03-01T09:29:50;102762.34;;;3.90;100.00
35151;BME280;55720;51.972;4.624;2023-03-01T09:32:16;102756.13;;;4.06;100.00
35151;BME280;55720;51.972;4.624;2023-03-01T09:34:41;102764.19;;;4.01;100.00
35151;BME280;55720;51.972;4.624;2023-03-01T09:37:26;102766.44;;;4.04;100.00
35151;BME280;55720;51.972;4.624;2023-03-01T09:39:52;102767.69;;;4.13;100.00
35151;BME280;55720;51.972;4.624;2023-03-01T09:42:17;102770.16;;;4.43;100.00
35151;BME280;55720;51.972;4.624;2023-03-01T09:44:49;102783.41;;;4.39;100.00
35151;BME280;55720;51.972;4.624;2023-03-01T09:49:43;102767.38;;;4.71;100.00
35151;BME280;55720;51.972;4.624;2023-03-01T09:55:01;102789.56;;;4.96;100.00
35151;BME280;55720;51.972;4.624;2023-03-01T09:57:54;102800.06;;;4.88;100.00
35151;BME280;55720;51.972;4.624;2023-03-01T10:00:29;102795.69;;;4.87;100.00
35151;BME280;55720;51.972;4.624;2023-03-01T10:06:09;102787.03;;;5.23;100.00
35151;BME280;55720;51.972;4.624;2023-03-01T10:08:59;102799.72;;;5.34;100.00
35151;BME280;55720;51.972;4.624;2023-03-01T10:11:31;102795.97;;;5.40;100.00
35151;BME280;55720;51.972;4.624;2023-03-01T10:16:52;102786.06;;;5.73;100.00
35151;BME280;55720;51.972;4.624;2023-03-01T10:19:25;102786.03;;;5.68;100.00
35151;BME280;55720;51.972;4.624;2023-03-01T10:22:11;102780.31;;;5.69;100.00
35151;BME280;55720;51.972;4.624;2023-03-01T10:24:38;102789.00;;;5.66;100.00
35151;BME280;55720;51.972;4.624;2023-03-01T10:27:09;102779.91;;;5.82;100.00
35151;BME280;55720;51.972;4.624;2023-03-01T10:29:46;102774.34;;;5.89;100.00
35151;BME280;55720;51.972;4.624;2023-03-01T10:32:14;102779.88;;;5.77;100.00
35151;BME280;55720;51.972;4.624;2023-03-01T10:34:39;102768.47;;;6.02;100.00
35151;BME280;55720;51.972;4.624;2023-03-01T10:37:13;103027.88;;;5.89;100.00
35151;BME280;55720;51.972;4.624;2023-03-01T10:40:15;103028.09;;;6.04;100.00
35151;BME280;55720;51.972;4.624;2023-03-01T10:42:47;103025.78;;;6.13;100.00
35151;BME280;55720;51.972;4.624;2023-03-01T10:45:35;103018.84;;;6.05;100.00
35151;BME280;55720;51.972;4.624;2023-03-01T10:48:19;103007.44;;;6.08;100.00
35151;BME280;55720;51.972;4.624;2023-03-01T10:50:57;103009.34;;;6.24;100.00
35151;BME280;55720;51.972;4.624;2023-03-01T10:53:32;103000.47;;;6.34;100.00
35151;BME280;55720;51.972;4.624;2023-03-01T10:56:16;102998.34;;;6.19;100.00
35151;BME280;55720;51.972;4.624;2023-03-01T10:58:59;102987.06;;;6.11;100.00
35151;BME280;55720;51.972;4.624;2023-03-01T11:01:28;102981.28;;;6.07;100.00
35151;BME280;55720;51.972;4.624;2023-03-01T11:06:32;102958.22;;;6.80;100.00
35151;BME280;55720;51.972;4.624;2023-03-01T11:09:19;102955.19;;;6.16;100.00
35151;BME280;55720;51.972;4.624;2023-03-01T11:11:45;102958.28;;;6.03;100.00
35151;BME280;55720;51.972;4.624;2023-03-01T11:14:37;102942.94;;;6.19;100.00
35151;BME280;55720;51.972;4.624;2023-03-01T11:17:28;102943.28;;;6.22;100.00
35151;BME280;55720;51.972;4.624;2023-03-01T11:20:31;102940.13;;;6.30;100.00
35151;BME280;55720;51.972;4.624;2023-03-01T11:23:17;102929.41;;;6.46;100.00
35151;BME280;55720;51.972;4.624;2023-03-01T11:25:51;102922.44;;;6.55;100.00
35151;BME280;55720;51.972;4.624;2023-03-01T11:28:20;102912.66;;;6.37;100.00
35151;BME280;55720;51.972;4.624;2023-03-01T11:31:10;102931.56;;;6.65;100.00
35151;BME280;55720;51.972;4.624;2023-03-01T11:39:12;102901.28;;;6.67;100.00
35151;BME280;55720;51.972;4.624;2023-03-01T11:41:41;102901.22;;;6.62;100.00
35151;BME280;55720;51.972;4.624;2023-03-01T11:44:19;102899.16;;;6.74;100.00
35151;BME280;55720;51.972;4.624;2023-03-01T11:46:57;102894.28;;;7.03;100.00
35151;BME280;55720;51.972;4.624;2023-03-01T11:52:07;102889.84;;;6.97;100.00
35151;BME280;55720;51.972;4.624;2023-03-01T12:02:55;102870.69;;;6.91;100.00
35151;BME280;55720;51.972;4.624;2023-03-01T12:08:23;102868.69;;;6.82;100.00
35151;BME280;55720;51.972;4.624;2023-03-01T12:13:59;102853.09;;;6.56;100.00
35151;BME280;55720;51.972;4.624;2023-03-01T12:16:45;102855.19;;;6.70;100.00
35151;BME280;55720;51.972;4.624;2023-03-01T12:19:53;102855.31;;;7.12;100.00
35151;BME280;55720;51.972;4.624;2023-03-01T12:22:35;102848.13;;;7.01;100.00
35151;BME280;55720;51.972;4.624;2023-03-01T12:33:22;102823.47;;;7.28;100.00
35151;BME280;55720;51.972;4.624;2023-03-01T12:38:41;102815.56;;;7.31;100.00
35151;BME280;55720;51.972;4.624;2023-03-01T12:47:15;102807.59;;;7.67;100.00
35151;BME280;55720;51.972;4.624;2023-03-01T12:49:49;102809.94;;;7.48;100.00
35151;BME280;55720;51.972;4.624;2023-03-01T12:52:23;102812.75;;;7.58;100.00
35151;BME280;55720;51.972;4.624;2023-03-01T12:54:55;102805.81;;;7.46;100.00
35151;BME280;55720;51.972;4.624;2023-03-01T12:57:30;102819.06;;;7.64;100.00
35151;BME280;55720;51.972;4.624;2023-03-01T13:06:38;102811.59;;;8.01;100.00
35151;BME280;55720;51.972;4.624;2023-03-01T13:08:48;102807.56;;;8.14;100.00
35151;BME280;55720;51.972;4.624;2023-03-01T13:11:21;102820.50;;;7.76;100.00
35151;BME280;55720;51.972;4.624;2023-03-01T13:13:47;102816.31;;;7.64;100.00
35151;BME280;55720;51.972;4.624;2023-03-01T13:19:39;102804.69;;;7.83;100.00
35151;BME280;55720;51.972;4.624;2023-03-01T13:21:40;102805.91;;;8.18;100.00
35151;BME280;55720;51.972;4.624;2023-03-01T13:24:34;102791.38;;;8.07;100.00
35151;BME280;55720;51.972;4.624;2023-03-01T13:29:58;102779.25;;;7.83;100.00
35151;BME280;55720;51.972;4.624;2023-03-01T13:32:35;102780.75;;;8.21;100.00
35151;BME280;55720;51.972;4.624;2023-03-01T13:37:40;102758.22;;;7.88;100.00
35151;BME280;55720;51.972;4.624;2023-03-01T13:42:53;102747.19;;;7.68;100.00
35151;BME280;55720;51.972;4.624;2023-03-01T13:45:35;102752.59;;;7.63;100.00
35151;BME280;55720;51.972;4.624;2023-03-01T13:48:10;102752.59;;;7.63;100.00
35151;BME280;55720;51.972;4.624;2023-03-01T13:50:46;102743.00;;;7.51;100.00
35151;BME280;55720;51.972;4.624;2023-03-01T13:53:17;102748.78;;;7.59;100.00
35151;BME280;55720;51.972;4.624;2023-03-01T13:59:05;102743.63;;;7.68;100.00
35151;BME280;55720;51.972;4.624;2023-03-01T14:01:36;102734.34;;;7.69;100.00
35151;BME280;55720;51.972;4.624;2023-03-01T14:04:03;102722.78;;;7.52;100.00
35151;BME280;55720;51.972;4.624;2023-03-01T14:06:31;102724.81;;;7.76;100.00
35151;BME280;55720;51.972;4.624;2023-03-01T14:09:26;102714.97;;;7.80;100.00
35151;BME280;55720;51.972;4.624;2023-03-01T14:12:06;102711.47;;;7.95;100.00
35151;BME280;55720;51.972;4.624;2023-03-01T14:17:39;102705.66;;;7.76;100.00
35151;BME280;55720;51.972;4.624;2023-03-01T14:20:22;102704.84;;;7.76;100.00
35151;BME280;55720;51.972;4.624;2023-03-01T14:22:50;102701.53;;;7.69;100.00
35151;BME280;55720;51.972;4.624;2023-03-01T14:27:55;102685.06;;;7.49;100.00